createdAt,value
2019-01-04T00:01:16.366Z,92.77
2019-01-04T00:03:46.157Z,92.20
2019-01-04T00:06:55.068Z,92.65
2019-01-04T00:09:24.736Z,92.18
2019-01-04T00:12:33.784Z,92.46
2019-01-04T00:18:17.920Z,92.16
2019-01-04T00:20:49.551Z,91.63
2019-01-04T00:23:58.348Z,91.47
2019-01-04T00:29:30.382Z,91.61
2019-01-04T00:35:09.235Z,91.71
2019-01-04T00:37:38.750Z,91.65
2019-01-04T00:40:09.030Z,91.52
2019-01-04T00:45:34.729Z,91.54
2019-01-04T00:51:13.702Z,91.19
2019-01-04T00:54:22.664Z,91.38
2019-01-04T00:57:30.262Z,91.29
2019-01-04T01:00:38.073Z,91.71
2019-01-04T01:03:45.500Z,91.53
2019-01-04T01:06:53.260Z,91.34
2019-01-04T01:10:01.628Z,91.09
2019-01-04T01:13:09.488Z,91.05
2019-01-04T01:16:16.863Z,91.08
2019-01-04T01:19:24.261Z,90.89
2019-01-04T01:22:50.757Z,91.00
2019-01-04T01:25:58.478Z,90.86
2019-01-04T01:29:06.242Z,91.02
2019-01-04T01:32:13.846Z,90.53
2019-01-04T01:35:29.565Z,90.76
2019-01-04T01:38:37.098Z,91.41
2019-01-04T01:41:45.004Z,91.17
2019-01-04T01:44:52.700Z,90.86
2019-01-04T01:48:04.275Z,90.80
2019-01-04T01:51:00.559Z,90.62
2019-01-04T01:56:36.875Z,90.57
2019-01-04T02:02:20.942Z,91.20
2019-01-04T02:07:51.828Z,90.93
2019-01-04T02:11:00.565Z,90.80
2019-01-04T02:13:30.641Z,90.74
2019-01-04T02:19:09.683Z,90.74
2019-01-04T02:22:18.651Z,90.36
2019-01-04T02:24:48.154Z,90.23
2019-01-04T02:27:37.455Z,90.80
2019-01-04T02:33:09.890Z,91.15
2019-01-04T02:35:40.340Z,90.60
2019-01-04T02:38:49.402Z,90.97
2019-01-04T02:41:18.954Z,91.09
2019-01-04T02:44:28.056Z,91.33
2019-01-04T02:52:35.721Z,90.97
2019-01-04T02:55:05.316Z,91.11
2019-01-04T02:58:14.220Z,91.02
2019-01-04T03:03:45.470Z,90.43
2019-01-04T03:09:34.942Z,90.48
2019-01-04T03:18:20.554Z,90.74
2019-01-04T03:21:29.217Z,90.82
2019-01-04T03:24:38.052Z,90.89
2019-01-04T03:30:22.386Z,90.91
2019-01-04T03:33:31.494Z,91.24
2019-01-04T03:38:56.763Z,91.17
2019-01-04T03:41:26.249Z,91.16
2019-01-04T03:44:35.249Z,91.38
2019-01-04T03:50:14.035Z,91.68
2019-01-04T03:52:43.842Z,91.29
2019-01-04T03:55:13.412Z,91.30
2019-01-04T04:00:57.457Z,91.40
2019-01-04T04:06:35.747Z,91.91
2019-01-04T04:09:44.727Z,92.01
2019-01-04T04:18:11.278Z,92.25
2019-01-04T04:21:20.253Z,92.31
2019-01-04T04:23:50.367Z,92.23
2019-01-04T04:29:35.052Z,91.79
2019-01-04T04:32:43.983Z,91.69
2019-01-04T04:35:14.283Z,91.73
2019-01-04T04:37:43.661Z,91.74
2019-01-04T04:40:13.044Z,91.87
2019-01-04T04:42:42.506Z,91.86
2019-01-04T04:48:26.221Z,91.69
2019-01-04T04:57:00.822Z,91.35
2019-01-04T04:59:30.564Z,91.44
2019-01-04T05:02:39.339Z,91.33
2019-01-04T05:05:08.745Z,91.07
2019-01-04T05:08:17.594Z,91.04
2019-01-04T05:16:56.871Z,90.75
2019-01-04T05:22:27.697Z,90.65
2019-01-04T05:25:36.749Z,90.69
2019-01-04T05:34:22.339Z,90.59
2019-01-04T05:39:57.467Z,90.70
2019-01-04T05:49:01.649Z,90.67
2019-01-04T05:51:31.234Z,90.58
2019-01-04T05:54:00.686Z,90.60
2019-01-04T05:57:09.582Z,90.59
2019-01-04T05:59:39.107Z,90.61
2019-01-04T06:05:04.350Z,90.30
2019-01-04T06:07:33.787Z,90.34
2019-01-04T06:10:03.208Z,90.30
2019-01-04T06:12:32.649Z,90.05
2019-01-04T06:15:02.077Z,90.32
2019-01-04T06:17:31.426Z,90.17
2019-01-04T06:20:01.304Z,90.20
2019-01-04T06:22:30.852Z,90.36
2019-01-04T06:25:00.402Z,90.35
2019-01-04T06:27:29.785Z,90.30
2019-01-04T06:29:59.342Z,89.97
2019-01-04T06:32:28.910Z,89.80
2019-01-04T06:34:58.539Z,90.14
2019-01-04T06:40:43.248Z,90.00
2019-01-04T06:43:12.847Z,90.00
2019-01-04T06:46:21.489Z,90.04
2019-01-04T06:51:52.451Z,90.01
2019-01-04T06:54:56.977Z,89.83
2019-01-04T06:57:26.419Z,89.78
2019-01-04T06:59:55.908Z,90.03
2019-01-04T07:02:25.471Z,89.99
2019-01-04T07:04:55.308Z,89.96
2019-01-04T07:07:24.729Z,90.04
2019-01-04T07:09:54.496Z,89.92
2019-01-04T07:12:23.988Z,89.90
2019-01-04T07:14:53.488Z,89.96
2019-01-04T07:17:22.900Z,89.81
2019-01-04T07:19:52.759Z,89.83
2019-01-04T07:22:22.682Z,89.72
2019-01-04T07:24:52.181Z,89.62
2019-01-04T07:27:21.856Z,89.50
2019-01-04T07:29:52.343Z,89.59
2019-01-04T07:32:21.841Z,89.58
2019-01-04T07:34:51.351Z,89.53
2019-01-04T07:43:41.084Z,89.43
2019-01-04T07:49:21.082Z,89.17
2019-01-04T07:51:50.770Z,89.26
2019-01-04T07:54:20.189Z,89.35
2019-01-04T07:56:49.795Z,89.27
2019-01-04T07:59:19.223Z,89.11
2019-01-04T08:01:48.611Z,89.01
2019-01-04T08:04:18.011Z,88.96
2019-01-04T08:13:22.504Z,88.84
2019-01-04T08:16:22.471Z,88.61
2019-01-04T08:22:06.729Z,88.63
2019-01-04T08:24:48.175Z,88.61
2019-01-04T08:27:37.692Z,88.66
2019-01-04T08:39:27.198Z,88.46
2019-01-04T08:41:57.254Z,88.21
2019-01-04T08:44:26.764Z,87.88
2019-01-04T08:46:56.660Z,88.13
2019-01-04T08:49:26.099Z,88.25
2019-01-04T08:52:34.801Z,88.33
2019-01-04T08:58:23.799Z,88.37
2019-01-04T09:00:54.710Z,88.07
2019-01-04T09:06:19.795Z,88.16
2019-01-04T09:08:49.819Z,88.24
2019-01-04T09:11:19.506Z,88.30
2019-01-04T09:13:49.024Z,88.14
2019-01-04T09:19:32.452Z,88.04
2019-01-04T09:22:41.282Z,87.95
2019-01-04T09:25:11.827Z,87.78
2019-01-04T09:27:41.686Z,87.69
2019-01-04T09:30:15.987Z,87.77
2019-01-04T09:32:45.512Z,87.60
2019-01-04T09:35:54.503Z,87.64
2019-01-04T09:41:55.575Z,87.38
2019-01-04T09:44:25.584Z,87.30
2019-01-04T09:47:34.602Z,87.48
2019-01-04T09:53:17.384Z,87.49
2019-01-04T09:58:36.043Z,87.26
2019-01-04T10:04:20.915Z,87.17
2019-01-04T10:06:50.387Z,87.32
2019-01-04T10:09:19.980Z,87.12
2019-01-04T10:12:29.128Z,86.80
2019-01-04T10:20:51.347Z,86.66
2019-01-04T10:24:00.183Z,86.98
2019-01-04T10:26:29.733Z,86.98
2019-01-04T10:28:59.095Z,86.96
2019-01-04T10:31:28.562Z,86.96
2019-01-04T10:33:57.967Z,86.84
2019-01-04T10:39:42.572Z,86.77
2019-01-04T10:45:31.393Z,86.80
2019-01-04T10:51:03.380Z,86.62
2019-01-04T10:53:32.933Z,86.76
2019-01-04T10:56:02.455Z,86.78
2019-01-04T10:58:31.988Z,86.58
2019-01-04T11:01:40.627Z,86.42
2019-01-04T11:04:49.557Z,86.35
2019-01-04T11:10:34.745Z,86.24
2019-01-04T11:13:05.562Z,86.31
2019-01-04T11:15:35.054Z,86.21
2019-01-04T11:21:03.541Z,86.12
2019-01-04T11:24:23.266Z,86.25
2019-01-04T11:27:01.211Z,86.27
2019-01-04T11:30:26.580Z,86.13
2019-01-04T11:33:43.034Z,86.13
2019-01-04T11:43:11.203Z,86.32
2019-01-04T11:46:04.267Z,86.35
2019-01-04T11:48:46.055Z,86.17
2019-01-04T11:51:53.595Z,86.12
2019-01-04T11:57:36.897Z,86.12
2019-01-04T12:03:21.507Z,86.03
2019-01-04T12:05:50.968Z,86.15
2019-01-04T12:11:16.018Z,85.99
2019-01-04T12:14:25.066Z,86.15
2019-01-04T12:19:51.819Z,86.03
2019-01-04T12:23:00.547Z,86.28
2019-01-04T12:25:30.163Z,86.19
2019-01-04T12:28:00.418Z,86.29
2019-01-04T12:30:30.063Z,86.29
2019-01-04T12:32:59.822Z,86.15
2019-01-04T12:35:29.179Z,86.17
2019-01-04T12:37:58.694Z,86.02
2019-01-04T12:40:28.463Z,85.85
2019-01-04T12:42:57.973Z,85.82
2019-01-04T12:45:27.537Z,85.79
2019-01-04T12:47:56.945Z,85.65
2019-01-04T12:50:26.321Z,85.75
2019-01-04T12:52:56.703Z,85.80
2019-01-04T12:55:26.288Z,85.50
2019-01-04T12:57:56.419Z,85.45
2019-01-04T13:00:25.834Z,85.37
2019-01-04T13:02:56.020Z,85.40
2019-01-04T13:05:25.409Z,85.38
2019-01-04T13:07:55.241Z,85.38
2019-01-04T13:10:24.773Z,85.38
2019-01-04T13:12:54.386Z,85.48
2019-01-04T13:15:23.762Z,85.15
2019-01-04T13:18:32.834Z,85.38
2019-01-04T13:24:17.364Z,85.33
2019-01-04T13:27:26.445Z,85.30
2019-01-04T13:30:35.337Z,85.02
2019-01-04T13:33:04.947Z,85.29
2019-01-04T13:36:13.830Z,85.37
2019-01-04T13:41:52.451Z,85.41
2019-01-04T13:44:21.843Z,85.36
2019-01-04T13:46:52.102Z,85.35
2019-01-04T13:50:01.076Z,85.35
2019-01-04T13:55:32.479Z,85.55
2019-01-04T13:58:41.384Z,85.57
2019-01-04T14:01:11.141Z,85.56
2019-01-04T14:03:40.594Z,85.21
2019-01-04T14:06:49.508Z,85.44
2019-01-04T14:12:34.173Z,85.68
2019-01-04T14:15:43.883Z,85.74
2019-01-04T14:18:13.835Z,85.73
2019-01-04T14:20:43.799Z,85.87
2019-01-04T14:23:52.553Z,85.69
2019-01-04T14:26:22.236Z,85.81
2019-01-04T14:28:52.112Z,86.09
2019-01-04T14:32:01.123Z,86.15
2019-01-04T14:37:58.525Z,86.18
2019-01-04T14:43:40.471Z,85.90
2019-01-04T14:46:10.117Z,85.54
2019-01-04T14:48:39.900Z,85.87
2019-01-04T14:51:09.871Z,85.79
2019-01-04T14:53:39.437Z,85.36
2019-01-04T14:59:23.891Z,85.80
2019-01-04T15:01:53.793Z,85.66
2019-01-04T15:04:23.278Z,85.76
2019-01-04T15:06:52.767Z,86.14
2019-01-04T15:09:22.457Z,86.33
2019-01-04T15:11:51.959Z,86.21
2019-01-04T15:14:21.813Z,86.48
2019-01-04T15:16:51.370Z,86.49
2019-01-04T15:19:21.413Z,86.28
2019-01-04T15:21:50.865Z,86.35
2019-01-04T15:24:20.802Z,86.57
2019-01-04T15:26:50.251Z,86.57
2019-01-04T15:29:20.096Z,86.59
2019-01-04T15:31:50.821Z,86.52
2019-01-04T15:34:20.326Z,86.44
2019-01-04T15:36:49.801Z,86.40
2019-01-04T15:39:19.817Z,86.49
2019-01-04T15:41:49.230Z,86.32
2019-01-04T15:44:18.639Z,86.42
2019-01-04T15:46:48.239Z,86.16
2019-01-04T15:49:18.129Z,86.09
2019-01-04T15:51:48.027Z,86.04
2019-01-04T15:54:18.265Z,86.20
2019-01-04T15:56:47.752Z,86.24
2019-01-04T15:59:56.459Z,86.08
2019-01-04T16:02:25.988Z,86.08
2019-01-04T16:04:57.326Z,86.21
2019-01-04T16:07:27.144Z,86.12
2019-01-04T16:09:56.578Z,86.16
2019-01-04T16:12:28.030Z,85.80
2019-01-04T16:14:57.992Z,85.84
2019-01-04T16:17:27.481Z,86.16
2019-01-04T16:22:55.416Z,86.40
2019-01-04T16:31:40.709Z,85.92
2019-01-04T16:34:51.284Z,85.93
2019-01-04T16:38:00.110Z,86.17
2019-01-04T16:40:29.833Z,86.25
2019-01-04T16:42:59.282Z,86.40
2019-01-04T16:45:28.755Z,86.42
2019-01-04T16:47:59.593Z,86.47
2019-01-04T16:50:29.233Z,86.45
2019-01-04T16:52:59.551Z,86.60
2019-01-04T16:55:29.395Z,86.69
2019-01-04T16:57:59.793Z,86.88
2019-01-04T17:00:29.544Z,86.85
2019-01-04T17:02:59.277Z,86.59
2019-01-04T17:05:28.811Z,86.42
2019-01-04T17:07:58.339Z,86.71
2019-01-04T17:10:27.805Z,86.55
2019-01-04T17:12:58.070Z,86.41
2019-01-04T17:15:27.532Z,86.33
2019-01-04T17:17:57.389Z,86.32
2019-01-04T17:20:26.985Z,86.82
2019-01-04T17:22:56.542Z,87.06
2019-01-04T17:25:26.492Z,86.75
2019-01-04T17:27:56.028Z,86.77
2019-01-04T17:30:25.445Z,87.05
2019-01-04T17:32:54.939Z,87.03
2019-01-04T17:36:03.938Z,86.66
2019-01-04T17:41:48.355Z,87.11
2019-01-04T17:44:17.866Z,87.04
2019-01-04T17:46:47.386Z,87.04
2019-01-04T17:49:16.797Z,86.58
2019-01-04T17:51:46.243Z,86.82
2019-01-04T17:54:15.714Z,86.74
2019-01-04T17:56:45.301Z,86.92
2019-01-04T17:59:14.794Z,86.74
2019-01-04T18:01:44.304Z,87.08
2019-01-04T18:04:13.809Z,86.86
2019-01-04T18:06:43.375Z,86.93
2019-01-04T18:09:12.929Z,87.14
2019-01-04T18:11:42.468Z,87.16
2019-01-04T18:14:11.896Z,86.88
2019-01-04T18:16:41.351Z,87.06
2019-01-04T18:19:11.481Z,86.90
2019-01-04T18:21:40.912Z,86.99
2019-01-04T18:24:10.315Z,86.91
2019-01-04T18:26:39.907Z,86.88
2019-01-04T18:29:09.316Z,86.62
2019-01-04T18:31:38.733Z,86.72
2019-01-04T18:34:08.180Z,87.00
2019-01-04T18:36:37.704Z,86.99
2019-01-04T18:39:08.296Z,86.91
2019-01-04T18:41:37.808Z,86.22
2019-01-04T18:44:07.230Z,86.69
2019-01-04T18:46:36.885Z,86.77
2019-01-04T18:49:06.690Z,86.67
2019-01-04T18:51:36.178Z,86.80
2019-01-04T18:54:05.667Z,86.59
2019-01-04T18:56:35.767Z,86.81
2019-01-04T18:59:05.310Z,86.53
2019-01-04T19:01:35.001Z,86.67
2019-01-04T19:04:04.558Z,86.77
2019-01-04T19:06:34.211Z,86.68
2019-01-04T19:09:04.666Z,86.59
2019-01-04T19:11:34.417Z,86.58
2019-01-04T19:14:06.381Z,86.96
2019-01-04T19:16:36.049Z,87.09
2019-01-04T19:19:05.909Z,86.99
2019-01-04T19:21:35.418Z,86.78
2019-01-04T19:24:05.070Z,86.48
2019-01-04T19:26:34.524Z,86.61
2019-01-04T19:29:04.182Z,86.77
2019-01-04T19:31:33.737Z,86.82
2019-01-04T19:34:03.278Z,86.73
2019-01-04T19:36:32.723Z,86.60
2019-01-04T19:39:02.801Z,86.59
2019-01-04T19:41:32.680Z,86.63
2019-01-04T19:44:02.066Z,86.79
2019-01-04T19:46:31.538Z,86.87
2019-01-04T19:49:01.222Z,87.03
2019-01-04T19:51:30.896Z,86.84
2019-01-04T19:54:00.321Z,86.66
2019-01-04T19:56:29.972Z,86.52
2019-01-04T19:58:59.720Z,86.44
2019-01-04T20:01:29.461Z,86.50
2019-01-04T20:03:59.147Z,86.48
2019-01-04T20:07:50.049Z,86.44
2019-01-04T20:11:13.605Z,86.68
2019-01-04T20:14:49.598Z,86.50
2019-01-04T20:17:46.271Z,86.37
2019-01-04T20:20:43.790Z,86.71
2019-01-04T20:23:32.195Z,86.06
2019-01-04T20:26:19.335Z,86.56
2019-01-04T20:29:09.195Z,86.72
2019-01-04T20:31:57.784Z,86.72
2019-01-04T20:34:44.961Z,86.66
2019-01-04T20:37:31.879Z,86.54
2019-01-04T20:40:38.114Z,86.47
2019-01-04T20:43:25.009Z,86.65
2019-01-04T20:46:31.928Z,86.93
2019-01-04T20:49:29.364Z,86.83
2019-01-04T20:52:24.359Z,86.68
2019-01-04T20:55:11.220Z,86.74
2019-01-04T20:57:58.992Z,86.76
2019-01-04T21:00:47.928Z,86.77
2019-01-04T21:03:45.360Z,86.52
2019-01-04T21:06:33.890Z,86.42
2019-01-04T21:09:21.158Z,86.69
2019-01-04T21:12:08.361Z,87.06
2019-01-04T21:14:56.070Z,87.05
2019-01-04T21:17:54.596Z,86.87
2019-01-04T21:20:46.554Z,86.69
2019-01-04T21:23:53.396Z,86.55
2019-01-04T21:26:40.750Z,86.47
2019-01-04T21:29:29.945Z,86.56
2019-01-04T21:35:13.549Z,86.34
2019-01-04T21:37:58.127Z,86.32
2019-01-04T21:40:55.949Z,86.39
2019-01-04T21:43:56.971Z,86.08
2019-01-04T21:46:54.691Z,86.31
2019-01-04T21:49:51.068Z,86.14
2019-01-04T21:52:51.872Z,85.97
2019-01-04T21:55:40.320Z,86.00
2019-01-04T21:58:27.156Z,86.11
2019-01-04T22:01:15.591Z,85.81
2019-01-04T22:04:04.123Z,85.74
2019-01-04T22:06:54.605Z,85.85
2019-01-04T22:09:58.983Z,85.56
2019-01-04T22:12:46.034Z,86.04
2019-01-04T22:15:54.789Z,85.92
2019-01-04T22:24:39.167Z,86.00
2019-01-04T22:27:48.237Z,86.11
2019-01-04T22:30:29.018Z,85.96
2019-01-04T22:36:32.569Z,86.23
2019-01-04T22:39:20.896Z,86.36
2019-01-04T22:45:30.123Z,86.20
2019-01-04T22:51:26.745Z,86.10
2019-01-04T22:54:24.648Z,85.84
2019-01-04T22:57:15.878Z,85.87
2019-01-04T23:00:04.373Z,86.09
2019-01-04T23:02:51.837Z,86.02
2019-01-04T23:05:40.210Z,85.88
2019-01-04T23:08:27.026Z,85.76
2019-01-04T23:11:13.901Z,85.69
2019-01-04T23:14:08.056Z,85.85
2019-01-04T23:17:11.724Z,85.72
2019-01-04T23:20:02.817Z,85.61
2019-01-04T23:22:56.094Z,85.78
2019-01-04T23:25:42.769Z,85.64
2019-01-04T23:28:46.289Z,85.76
2019-01-04T23:31:32.829Z,85.47
2019-01-04T23:34:36.273Z,85.37
2019-01-04T23:37:30.517Z,85.64
2019-01-04T23:40:28.023Z,85.44
2019-01-04T23:43:19.303Z,85.49
2019-01-04T23:49:15.301Z,85.53
2019-01-04T23:52:07.524Z,85.54
2019-01-04T23:54:54.656Z,85.49
2019-01-04T23:57:46.469Z,85.75
